Time;durP1;ratioP1;P1;durP2;ratioP2;P2;SDS_P1;SDS_P2;PMS_P1;PMS_P2;Temp;Humidity;BMP_temperature;BMP_pressure;BME280_temperature;BME280_humidity;BME280_pressure;Samples;Min_cycle;Max_cycle;Signal;HPM_P1;HPM_P2
2022/11/18 00:00:35;;;;;;;8.50;2.30;;;8.10;99.90;;;7.31;100.00;99928.66;4217457;28;20531;-78
2022/11/18 00:02:36;;;;;;;9.85;2.35;;;8.10;99.90;;;7.33;100.00;99926.69;4218374;28;20035;-78
2022/11/18 00:04:37;;;;;;;9.15;2.25;;;8.20;99.90;;;7.30;100.00;99927.00;4233649;28;20387;-78
2022/11/18 00:06:38;;;;;;;8.63;2.15;;;8.10;99.90;;;7.27;100.00;99923.84;4218464;28;20032;-77
2022/11/18 00:08:40;;;;;;;7.05;2.00;;;8.10;99.90;;;7.29;100.00;99919.28;4251077;28;20041;-77
2022/11/18 00:10:41;;;;;;;12.07;2.92;;;8.10;99.90;;;7.29;100.00;99920.09;4250845;28;20024;-78
2022/11/18 00:15:01;;;;;;;11.90;2.75;;;8.20;99.90;;;7.34;100.00;99933.59;4218668;28;20039;-78
2022/11/18 00:17:04;;;;;;;15.68;3.63;;;8.20;99.90;;;7.32;100.00;99930.28;4251127;28;20023;-77
2022/11/18 00:19:05;;;;;;;14.90;2.88;;;8.20;99.90;;;7.29;100.00;99920.09;4249774;28;20033;-78
2022/11/18 00:21:11;;;;;;;10.00;2.90;;;8.20;99.90;;;7.30;100.00;99934.84;4218182;28;20044;-78
2022/11/18 00:23:11;;;;;;;10.95;3.13;;;8.20;99.90;;;7.30;100.00;99924.38;4216909;28;20127;-78
2022/11/18 00:25:12;;;;;;;19.67;3.35;;;8.20;99.90;;;7.30;100.00;99932.25;4218406;28;20028;-78
2022/11/18 00:27:13;;;;;;;11.80;2.65;;;8.20;99.90;;;7.31;100.00;99939.13;4233684;28;20114;-78
2022/11/18 00:29:15;;;;;;;12.30;2.97;;;8.20;99.90;;;7.31;100.00;99933.91;4250810;28;20065;-78
2022/11/18 00:31:16;;;;;;;19.23;2.97;;;8.20;99.90;;;7.40;100.00;99929.50;4216957;28;20107;-78
2022/11/18 00:33:16;;;;;;;12.40;2.80;;;8.20;99.90;;;7.61;100.00;99941.28;4251027;28;20015;-79
2022/11/18 00:35:17;;;;;;;13.68;2.42;;;8.30;99.90;;;7.53;100.00;99933.34;4217881;28;20021;-78
2022/11/18 00:37:18;;;;;;;13.10;2.55;;;8.40;99.90;;;7.51;100.00;99929.25;4218376;28;20024;-78
2022/11/18 00:39:19;;;;;;;12.15;2.38;;;8.30;99.90;;;7.66;100.00;99941.63;4251012;28;20490;-78
2022/11/18 00:41:20;;;;;;;15.52;2.38;;;8.40;99.90;;;7.61;100.00;99941.28;4217052;28;20024;-78
2022/11/18 00:43:21;;;;;;;16.42;2.45;;;8.40;99.90;;;7.60;100.00;99934.38;4217983;28;20038;-78
2022/11/18 00:45:22;;;;;;;14.82;3.17;;;8.40;99.90;;;7.72;100.00;99945.41;4250999;28;20023;-78
2022/11/18 00:47:23;;;;;;;10.20;2.05;;;8.50;99.90;;;7.64;100.00;99940.97;4250573;28;20027;-78
2022/11/18 00:49:24;;;;;;;15.30;2.53;;;8.50;99.90;;;7.57;100.00;99945.19;4250200;28;20023;-78
2022/11/18 00:51:25;;;;;;;15.35;3.20;;;8.50;99.90;;;7.56;100.00;99940.06;4214995;28;20032;-78
2022/11/18 00:53:26;;;;;;;15.20;2.47;;;8.50;99.90;;;7.49;100.00;99955.66;4236855;28;20023;-78
2022/11/18 00:55:27;;;;;;;12.13;2.72;;;8.40;99.90;;;7.55;100.00;99959.44;4253928;27;20023;-78
2022/11/18 00:57:28;;;;;;;12.48;2.55;;;8.40;99.90;;;7.50;100.00;99957.28;4219780;28;20024;-78
2022/11/18 00:59:29;;;;;;;14.20;3.72;;;8.40;99.90;;;7.53;100.00;99953.50;4219757;28;20035;-78
2022/11/18 01:01:30;;;;;;;22.73;2.95;;;8.40;99.90;;;7.55;100.00;99968.16;4221096;28;20031;-78
2022/11/18 01:03:31;;;;;;;11.13;2.15;;;8.40;99.90;;;7.61;100.00;99957.03;4220982;28;20032;-78
2022/11/18 01:05:31;;;;;;;17.95;2.30;;;8.40;99.90;;;7.64;100.00;99956.72;4220955;28;20395;-78
2022/11/18 01:07:32;;;;;;;16.42;4.28;;;8.50;99.90;;;7.59;100.00;99958.97;4220894;28;20024;-78
2022/11/18 01:09:33;;;;;;;14.00;3.00;;;8.50;99.90;;;7.59;100.00;99974.72;4253756;27;20024;-78
2022/11/18 01:13:54;;;;;;;10.52;2.92;;;8.50;99.90;;;7.64;100.00;99964.59;4220757;28;20035;-77
2022/11/18 01:15:57;;;;;;;15.07;2.22;;;8.50;99.90;;;7.60;100.00;99968.50;4220657;28;20027;-78
2022/11/18 01:17:57;;;;;;;16.10;2.80;;;8.50;99.90;;;7.58;100.00;99965.22;4252652;27;20054;-78
2022/11/18 01:19:58;;;;;;;14.40;2.75;;;8.50;99.90;;;7.61;100.00;99969.31;4220468;28;20044;-78
2022/11/18 01:22:02;;;;;;;17.50;2.85;;;8.50;99.90;;;7.57;100.00;99976.69;4253541;27;20023;-77
2022/11/18 01:24:04;;;;;;;13.65;2.20;;;8.50;99.90;;;7.58;100.00;99970.47;4220676;28;20036;-78
2022/11/18 01:26:08;;;;;;;15.10;3.13;;;8.40;99.90;;;7.67;100.00;99974.78;4253524;27;20102;-78
2022/11/18 01:28:10;;;;;;;18.05;3.40;;;8.50;99.90;;;7.60;100.00;99972.91;4220636;28;20111;-77
2022/11/18 01:30:11;;;;;;;20.67;2.35;;;8.50;99.90;;;7.60;100.00;99970.28;4220469;28;20032;-78
2022/11/18 01:32:12;;;;;;;14.95;2.60;;;8.50;99.90;;;7.64;100.00;99972.47;4220473;28;20043;-77
2022/11/18 01:34:13;;;;;;;14.25;2.92;;;8.50;99.90;;;7.56;100.00;99975.03;4220353;28;20024;-78
2022/11/18 01:36:32;;;;;;;17.77;3.33;;;8.40;99.90;;;7.48;100.00;99972.34;4220486;28;20396;-77
2022/11/18 01:38:33;;;;;;;11.73;2.65;;;8.40;99.90;;;7.45;100.00;99977.91;4220313;28;20028;-78
2022/11/18 01:40:34;;;;;;;15.40;2.83;;;8.40;99.90;;;7.47;100.00;99986.44;4219093;28;20028;-77
2022/11/18 01:42:36;;;;;;;13.73;3.08;;;8.40;99.90;;;7.44;100.00;99986.75;4253165;27;20031;-78
2022/11/18 01:44:58;;;;;;;13.88;2.40;;;8.30;99.90;;;7.41;100.00;99992.31;4218990;28;20036;-78
2022/11/18 01:46:58;;;;;;;12.82;2.92;;;8.30;99.90;;;7.37;100.00;99995.41;4220407;28;20036;-78
2022/11/18 01:49:08;;;;;;;15.48;2.95;;;8.30;99.90;;;7.35;100.00;99994.75;4252910;27;20042;-78
2022/11/18 01:51:13;;;;;;;14.27;2.53;;;8.20;99.90;;;7.32;100.00;99995.84;4252642;27;20034;-78
2022/11/18 01:53:25;;;;;;;14.98;3.75;;;8.20;99.90;;;7.33;100.00;99994.06;4235520;28;20399;-78
2022/11/18 01:55:33;;;;;;;13.77;2.95;;;8.20;99.90;;;7.28;100.00;99991.91;4220212;28;20024;-77
2022/11/18 01:57:34;;;;;;;11.48;3.03;;;8.20;99.90;;;7.27;100.00;99998.13;4251998;27;20394;-77
2022/11/18 01:59:39;;;;;;;11.68;2.80;;;8.10;99.90;;;7.21;100.00;99990.88;4220022;28;20020;-78
2022/11/18 02:01:40;;;;;;;8.88;2.00;;;8.10;99.90;;;7.19;100.00;100003.31;4252563;27;20039;-78
2022/11/18 02:03:43;;;;;;;18.27;2.75;;;8.10;99.90;;;7.18;100.00;99996.41;4218916;28;20032;-78
2022/11/18 02:05:48;;;;;;;18.67;3.57;;;8.00;99.90;;;7.18;100.00;100004.28;4252591;27;20023;-78
2022/11/18 02:07:48;;;;;;;;;;;8.00;99.90;;;7.09;100.00;99998.16;4235904;28;20093;-77
2022/11/18 02:09:52;;;;;;;9.85;2.97;;;8.00;99.90;;;7.12;100.00;100010.13;4219203;28;19912;-78
2022/11/18 02:11:53;;;;;;;13.60;2.65;;;8.00;99.90;;;7.08;100.00;100001.75;4252456;27;20073;-78
2022/11/18 02:13:54;;;;;;;17.88;2.55;;;8.00;99.90;;;7.11;100.00;100019.78;4218603;28;20024;-77
2022/11/18 02:16:19;;;;;;;12.98;2.85;;;8.00;99.90;;;7.16;100.00;100027.22;4201900;28;20013;-77
2022/11/18 02:18:44;;;;;;;10.18;3.00;;;8.00;99.90;;;7.16;100.00;100024.59;4217867;28;20505;-77
2022/11/18 02:20:50;;;;;;;;;;;8.00;99.90;;;7.13;100.00;100024.91;4218899;28;20525;-77
2022/11/18 02:23:52;;;;;;;14.88;2.20;;;8.00;99.90;;;7.12;100.00;100031.13;4218697;28;20361;-78
2022/11/18 02:26:49;;;;;;;9.60;3.22;;;8.00;99.90;;;7.17;100.00;100031.47;4205203;28;20039;-78
2022/11/18 02:29:09;;;;;;;15.32;2.88;;;8.00;99.90;;;7.17;100.00;100037.56;4219535;28;20031;-78
2022/11/18 02:31:24;;;;;;;15.27;3.53;;;8.00;99.90;;;7.14;100.00;100031.78;4219569;28;20487;-77
2022/11/18 02:33:46;;;;;;;13.82;3.00;;;8.00;99.90;;;7.09;100.00;100026.16;4251230;27;20043;-77
2022/11/18 02:36:00;;;;;;;13.63;3.08;;;8.00;99.90;;;7.14;100.00;100032.59;4247923;27;20101;-78
2022/11/18 02:38:12;;;;;;;11.97;3.53;;;8.00;99.90;;;7.16;100.00;100040.34;4251097;27;20047;-78
2022/11/18 02:40:24;;;;;;;9.80;2.78;;;8.00;99.90;;;7.15;100.00;100041.31;4251432;27;20019;-78
2022/11/18 02:42:29;;;;;;;13.50;3.00;;;8.00;99.90;;;7.08;100.00;100042.88;4251849;27;20023;-78
2022/11/18 02:44:31;;;;;;;9.35;1.77;;;8.00;99.90;;;7.13;100.00;100043.25;4251641;27;20570;-77
2022/11/18 02:46:37;;;;;;;16.77;2.25;;;8.00;99.90;;;7.20;100.00;100055.59;4252030;27;20052;-78
2022/11/18 02:48:45;;;;;;;14.65;3.67;;;8.00;99.90;;;7.17;100.00;100047.22;4251349;27;20015;-78
2022/11/18 02:50:49;;;;;;;19.00;3.47;;;8.00;99.90;;;7.15;100.00;100052.63;4251135;27;20031;-77
2022/11/18 02:52:57;;;;;;;12.50;2.97;;;8.00;99.90;;;7.17;100.00;100062.94;4251856;27;20023;-78
2022/11/18 02:55:00;;;;;;;10.48;3.00;;;8.00;99.90;;;7.10;100.00;100054.88;4250807;27;20427;-78
2022/11/18 02:57:03;;;;;;;13.60;2.72;;;8.00;99.90;;;7.10;100.00;100059.31;4251934;27;20074;-78
2022/11/18 02:59:04;;;;;;;10.93;3.22;;;8.00;99.90;;;7.16;100.00;100056.91;4251778;27;20030;-77
2022/11/18 03:01:05;;;;;;;14.70;3.88;;;8.00;99.90;;;7.11;100.00;100053.88;4251957;27;20035;-78
2022/11/18 03:03:29;;;;;;;18.25;4.50;;;8.00;99.90;;;7.13;100.00;100061.63;4219282;28;20379;-78
2022/11/18 03:05:52;;;;;;;15.10;3.78;;;8.00;99.90;;;7.09;100.00;100063.72;4219068;28;20041;-78
2022/11/18 03:08:05;;;;;;;19.55;3.15;;;8.00;99.90;;;7.08;100.00;100058.59;4249769;27;20023;-77
2022/11/18 03:10:06;;;;;;;14.13;3.03;;;8.00;99.90;;;7.07;100.00;100057.81;4250618;27;20401;-78
2022/11/18 03:12:42;;;;;;;23.77;3.38;;;8.00;99.90;;;7.07;100.00;100062.22;4217464;28;20059;-78
2022/11/18 03:15:11;;;;;;;15.75;3.03;;;8.00;99.90;;;7.07;100.00;100059.59;4217535;28;20028;-77
2022/11/18 03:17:39;;;;;;;15.23;3.35;;;8.00;99.90;;;7.12;100.00;100062.59;4251716;27;20028;-77
2022/11/18 03:20:29;;;;;;;11.18;3.00;;;8.00;99.90;;;7.13;100.00;100059.81;4218226;28;20558;-77
2022/11/18 03:22:39;;;;;;;14.63;2.63;;;8.00;99.90;;;7.09;100.00;100065.50;4218426;28;20048;-77
2022/11/18 03:24:53;;;;;;;19.92;3.72;;;8.00;99.90;;;7.15;100.00;100060.50;4251763;27;20027;-78
2022/11/18 03:27:13;;;;;;;17.33;3.33;;;8.00;99.90;;;7.18;100.00;100064.59;4249930;27;20019;-78
2022/11/18 03:29:24;;;;;;;13.18;3.28;;;8.00;99.90;;;7.15;100.00;100070.16;4249549;27;20027;-77
2022/11/18 03:31:36;;;;;;;17.63;3.80;;;8.00;99.90;;;7.16;100.00;100069.19;4217325;28;20024;-78
2022/11/18 03:33:45;;;;;;;15.77;3.20;;;8.10;99.90;;;7.19;100.00;100072.34;4218449;28;20032;-78
2022/11/18 03:35:49;;;;;;;15.55;3.30;;;8.00;99.90;;;7.18;100.00;100065.44;4250950;27;20526;-77
2022/11/18 03:38:00;;;;;;;13.00;2.05;;;8.10;99.90;;;7.26;100.00;100077.78;4251056;27;20068;-77
2022/11/18 03:40:18;;;;;;;14.23;2.90;;;8.00;99.90;;;7.21;100.00;100078.25;4250515;27;20068;-77
2022/11/18 03:42:37;;;;;;;13.23;2.67;;;8.10;99.90;;;7.14;100.00;100079.81;4249535;27;20046;-77
2022/11/18 03:44:43;;;;;;;9.70;2.28;;;8.00;99.90;;;7.15;100.00;100070.16;4251068;27;20598;-77
2022/11/18 03:47:01;;;;;;;19.30;2.95;;;8.00;99.90;;;7.12;100.00;100073.06;4250437;27;20031;-77
2022/11/18 03:49:08;;;;;;;11.00;3.60;;;8.00;99.90;;;7.16;100.00;100066.56;4249859;27;20075;-77
2022/11/18 03:51:15;;;;;;;14.85;3.38;;;8.00;99.90;;;7.17;100.00;100076.06;4250706;27;20067;-77
2022/11/18 03:53:18;;;;;;;13.27;2.88;;;8.00;99.90;;;7.14;100.00;100073.75;4250470;28;20027;-77
2022/11/18 03:55:31;;;;;;;12.00;3.45;;;8.00;99.90;;;7.06;100.00;100065.81;4251210;28;20027;-77
2022/11/18 03:58:08;;;;;;;16.17;3.78;;;8.00;99.90;;;7.05;100.00;100074.63;4249774;28;20019;-77
2022/11/18 04:00:14;;;;;;;16.48;2.70;;;7.90;99.90;;;7.03;100.00;100076.59;4232229;28;20063;-77
2022/11/18 04:02:22;;;;;;;16.02;2.75;;;7.90;99.90;;;6.99;100.00;100077.88;4250775;28;20075;-77
2022/11/18 04:04:24;;;;;;;10.68;3.08;;;7.90;99.90;;;6.99;100.00;100086.56;4249837;28;20486;-78
2022/11/18 04:06:53;;;;;;;13.95;3.85;;;7.90;99.90;;;6.96;100.00;100091.28;4250943;28;20015;-77
2022/11/18 04:09:00;;;;;;;12.55;3.72;;;7.90;99.90;;;6.92;100.00;100096.00;4218448;28;20107;-77
2022/11/18 04:13:40;;;;;;;17.48;3.50;;;7.80;99.90;;;6.85;100.00;100094.94;4217420;28;20039;-77
2022/11/18 04:15:42;;;;;;;14.00;3.50;;;7.80;99.90;;;6.91;100.00;100104.00;4250993;28;20474;-77
2022/11/18 04:17:43;;;;;;;11.25;2.67;;;7.80;99.90;;;6.88;100.00;100106.91;4217667;28;20028;-77
2022/11/18 04:19:44;;;;;;;12.68;3.45;;;7.80;99.90;;;6.85;100.00;100108.03;4216818;28;20023;-77
2022/11/18 04:21:47;;;;;;;14.93;3.67;;;7.70;99.90;;;6.83;100.00;100122.28;4233777;28;20023;-77
2022/11/18 04:23:48;;;;;;;15.68;2.80;;;7.70;99.90;;;6.75;100.00;100106.47;4250948;28;20034;-77
2022/11/18 04:25:49;;;;;;;11.32;2.65;;;7.70;99.90;;;6.75;100.00;100116.94;4218333;28;20032;-77
2022/11/18 04:27:50;;;;;;;17.92;2.90;;;7.70;99.90;;;6.78;100.00;100116.66;4254014;27;20039;-77
2022/11/18 04:29:51;;;;;;;9.68;2.60;;;7.70;99.90;;;6.81;100.00;100126.84;4220384;28;20419;-77
2022/11/18 04:31:52;;;;;;;15.05;3.97;;;7.70;99.90;;;6.85;100.00;100133.44;4221381;28;20032;-77
2022/11/18 04:33:53;;;;;;;10.73;3.47;;;7.70;99.90;;;6.85;100.00;100136.06;4254027;27;20368;-77
2022/11/18 04:35:53;;;;;;;17.23;3.40;;;7.70;99.90;;;6.85;100.00;100146.53;4220281;28;20028;-77
2022/11/18 04:37:54;;;;;;;11.77;2.20;;;7.70;99.90;;;6.82;100.00;100146.81;4221424;28;20492;-77
2022/11/18 04:39:55;;;;;;;8.95;2.00;;;7.70;99.90;;;6.82;100.00;100149.44;4254217;27;20102;-78
2022/11/18 04:41:56;;;;;;;16.50;2.25;;;7.70;99.90;;;6.85;100.00;100149.16;4221240;28;20030;-78
2022/11/18 04:43:57;;;;;;;12.23;2.95;;;7.70;99.90;;;6.83;100.00;100148.50;4221582;28;20028;-77
2022/11/18 04:45:58;;;;;;;15.27;2.50;;;7.70;99.90;;;6.81;100.00;100148.63;4254071;27;20019;-78
2022/11/18 04:47:59;;;;;;;14.27;3.85;;;7.70;99.90;;;6.78;100.00;100154.16;4236854;28;20031;-78
2022/11/18 04:49:59;;;;;;;11.80;2.97;;;7.70;99.90;;;6.78;100.00;100150.72;4219693;28;20531;-77
2022/11/18 04:52:01;;;;;;;12.32;2.42;;;7.70;99.90;;;6.77;100.00;100149.06;4236788;28;20046;-78
2022/11/18 04:54:03;;;;;;;15.35;2.45;;;7.70;99.90;;;6.80;100.00;100152.22;4220011;28;20024;-78
2022/11/18 04:56:06;;;;;;;13.98;2.75;;;7.70;99.90;;;6.87;100.00;100155.09;4253828;27;20094;-77
2022/11/18 04:58:07;;;;;;;15.50;3.53;;;7.70;99.90;;;6.84;100.00;100150.16;4220953;28;20020;-78
2022/11/18 05:00:08;;;;;;;12.95;2.17;;;7.70;99.90;;;6.80;100.00;100152.22;4221319;28;20028;-78
2022/11/18 05:02:09;;;;;;;12.07;2.90;;;7.70;99.90;;;6.83;100.00;100162.44;4220768;28;20039;-78
2022/11/18 05:04:17;;;;;;;9.68;2.42;;;7.70;99.90;;;6.86;100.00;100171.78;4220754;28;20032;-78
2022/11/18 05:06:18;;;;;;;11.10;2.40;;;7.70;99.90;;;6.82;100.00;100168.63;4220875;28;20477;-78
2022/11/18 05:08:18;;;;;;;15.80;3.30;;;7.70;99.90;;;6.81;100.00;100166.16;4253762;27;20031;-78
2022/11/18 05:10:19;;;;;;;12.40;2.63;;;7.70;99.90;;;6.84;100.00;100173.75;4219642;28;20028;-77
2022/11/18 05:14:40;;;;;;;9.20;2.05;;;7.70;99.90;;;6.86;100.00;100177.03;4219953;28;20116;-78
2022/11/18 05:16:41;;;;;;;14.27;2.30;;;7.70;99.90;;;6.80;100.00;100181.06;4221040;28;20107;-78
2022/11/18 05:18:42;;;;;;;14.85;2.35;;;7.70;99.90;;;6.79;100.00;100179.41;4252581;27;20088;-78
2022/11/18 05:20:42;;;;;;;10.27;2.08;;;7.70;99.90;;;6.77;100.00;100180.53;4219334;28;20060;-78
2022/11/18 05:22:43;;;;;;;13.35;2.22;;;7.60;99.90;;;6.71;100.00;100181.09;4220698;28;20032;-78
2022/11/18 05:24:44;;;;;;;9.35;2.30;;;7.60;99.90;;;6.72;100.00;100182.78;4253431;27;20405;-77
2022/11/18 05:26:45;;;;;;;11.13;2.55;;;7.60;99.90;;;6.68;100.00;100182.22;4220761;28;20037;-78
2022/11/18 05:28:46;;;;;;;11.43;2.97;;;7.60;99.90;;;6.69;100.00;100189.09;4253278;27;20410;-78
2022/11/18 05:30:47;;;;;;;9.52;2.10;;;7.60;99.90;;;6.67;100.00;100180.56;4219424;28;20085;-78
2022/11/18 05:32:48;;;;;;;12.38;2.28;;;7.60;99.90;;;6.67;100.00;100186.63;4220572;28;20032;-78
2022/11/18 05:34:49;;;;;;;11.95;1.50;;;7.60;99.90;;;6.64;100.00;100188.72;4220355;28;20479;-77
2022/11/18 05:36:50;;;;;;;16.48;3.72;;;7.50;99.90;;;6.66;100.00;100179.72;4253096;27;20035;-78
2022/11/18 05:38:51;;;;;;;5.55;1.50;;;7.50;99.90;;;6.65;100.00;100178.09;4219145;28;20024;-78
2022/11/18 05:40:52;;;;;;;10.27;2.67;;;7.50;99.90;;;6.64;100.00;100186.09;4219373;28;20023;-78
2022/11/18 05:43:11;;;;;;;10.35;1.75;;;7.50;99.90;;;6.67;100.00;100185.81;4219099;28;20024;-78
2022/11/18 05:45:12;;;;;;;11.63;2.55;;;7.50;99.90;;;6.67;100.00;100186.63;4220431;28;20028;-77
2022/11/18 05:47:13;;;;;;;10.82;2.08;;;7.50;99.90;;;6.66;100.00;100179.72;4253205;27;20486;-78
2022/11/18 05:49:13;;;;;;;11.60;1.30;;;7.60;99.90;;;6.67;100.00;100189.25;4219112;28;20028;-78
2022/11/18 05:51:15;;;;;;;10.73;1.92;;;7.60;99.90;;;6.66;100.00;100195.47;4253003;27;20116;-78
2022/11/18 05:53:19;;;;;;;12.55;2.15;;;7.50;99.90;;;6.61;100.00;100191.63;4220412;28;20020;-78
2022/11/18 05:55:22;;;;;;;8.40;1.67;;;7.50;99.90;;;6.60;100.00;100201.28;4220255;28;20028;-78
2022/11/18 05:57:23;;;;;;;10.77;1.70;;;7.50;99.90;;;6.62;100.00;100201.97;4252527;27;20406;-78
2022/11/18 05:59:24;;;;;;;12.32;1.80;;;7.50;99.90;;;6.57;100.00;100201.56;4220068;28;20020;-78
2022/11/18 06:01:32;;;;;;;11.57;1.98;;;7.50;99.90;;;6.54;100.00;100207.09;4220121;28;20047;-78
2022/11/18 06:03:39;;;;;;;5.13;1.30;;;7.50;99.90;;;6.56;100.00;100217.44;4252603;27;20429;-78
2022/11/18 06:05:40;;;;;;;17.30;1.98;;;7.40;99.90;;;6.53;100.00;100217.72;4252654;27;20045;-78
2022/11/18 06:07:43;;;;;;;10.98;1.63;;;7.40;99.90;;;6.51;100.00;100217.84;4252643;27;20451;-78
2022/11/18 06:09:49;;;;;;;7.47;1.63;;;7.40;99.90;;;6.49;100.00;100214.56;4218648;28;20032;-78
2022/11/18 06:11:55;;;;;;;8.93;1.77;;;7.40;99.90;;;6.49;100.00;100230.28;4235024;28;20089;-78
2022/11/18 06:14:10;;;;;;;10.30;2.00;;;7.40;99.90;;;6.52;100.00;100230.00;4219634;28;20024;-78
2022/11/18 06:16:12;;;;;;;11.32;2.20;;;7.40;99.90;;;6.48;100.00;100233.84;4250382;27;20030;-78
2022/11/18 06:18:31;;;;;;;17.23;2.30;;;7.40;99.90;;;6.51;100.00;100233.56;4218823;28;20122;-77
2022/11/18 06:20:35;;;;;;;14.65;2.80;;;7.40;99.90;;;6.51;100.00;100228.34;4218585;28;20113;-78
2022/11/18 06:22:36;;;;;;;8.80;2.90;;;7.40;99.90;;;6.49;100.00;100238.13;4252305;27;20030;-77
2022/11/18 06:24:38;;;;;;;10.18;2.38;;;7.40;99.90;;;6.47;100.00;100242.72;4251784;27;20027;-77
2022/11/18 06:26:40;;;;;;;8.85;2.15;;;7.30;99.90;;;6.44;100.00;100243.00;4218514;28;20028;-77
2022/11/18 06:28:44;;;;;;;8.68;2.13;;;7.40;99.90;;;6.42;100.00;100244.09;4252428;27;20023;-77
2022/11/18 06:30:45;;;;;;;;;;;7.40;99.90;;;6.40;100.00;100259.94;4252650;27;20023;-77
2022/11/18 06:32:46;;;;;;;11.68;2.45;;;7.30;99.90;;;6.41;100.00;100247.69;4219638;28;19908;-78
2022/11/18 06:34:47;;;;;;;13.10;3.40;;;7.30;99.90;;;6.39;100.00;100245.19;4234845;28;20027;-78
2022/11/18 06:36:47;;;;;;;12.05;3.05;;;7.30;99.90;;;6.40;100.00;100254.72;4218225;28;20488;-78
2022/11/18 06:38:48;;;;;;;12.57;3.90;;;7.30;99.90;;;6.43;100.00;100257.03;4252241;27;20031;-77
2022/11/18 06:40:49;;;;;;;9.95;2.70;;;7.30;99.90;;;6.49;100.00;100266.97;4219572;28;20073;-78
2022/11/18 06:45:10;;;;;;;7.20;2.30;;;7.30;99.90;;;6.40;100.00;100270.44;4218901;28;20093;-78
2022/11/18 06:47:11;;;;;;;8.63;3.08;;;7.30;99.90;;;6.36;100.00;100266.44;4218145;28;20031;-78
2022/11/18 06:49:12;;;;;;;10.90;2.88;;;7.30;99.90;;;6.37;100.00;100278.56;4218623;28;20028;-78
2022/11/18 06:51:13;;;;;;;13.20;2.75;;;7.30;99.90;;;6.39;100.00;100270.59;4219201;28;20484;-78
2022/11/18 06:53:13;;;;;;;12.68;3.22;;;7.30;99.90;;;6.48;100.00;100273.16;4251809;27;20023;-78
2022/11/18 06:55:14;;;;;;;11.82;2.00;;;7.30;99.90;;;6.50;100.00;100273.03;4219240;28;20495;-78
2022/11/18 06:57:15;;;;;;;10.68;2.70;;;7.40;99.90;;;6.53;100.00;100278.00;4251888;27;20399;-78
2022/11/18 06:59:22;;;;;;;8.10;2.50;;;7.40;99.90;;;6.52;100.00;100276.31;4219171;28;20109;-78
2022/11/18 07:01:29;;;;;;;5.80;2.20;;;7.40;99.90;;;6.50;100.00;100273.88;4250328;27;20031;-78
2022/11/18 07:03:30;;;;;;;16.08;2.67;;;7.40;99.90;;;6.49;100.00;100293.16;4251413;27;20101;-78
2022/11/18 07:05:31;;;;;;;12.57;2.10;;;7.40;99.90;;;6.47;100.00;100284.63;4219179;28;20024;-78
2022/11/18 07:07:34;;;;;;;10.45;2.55;;;7.40;99.90;;;6.46;100.00;100290.81;4234373;28;20065;-78
2022/11/18 07:09:36;;;;;;;7.95;1.65;;;7.40;99.90;;;6.53;100.00;100293.72;4234501;28;20138;-78
2022/11/18 07:11:40;;;;;;;8.38;2.65;;;7.40;99.90;;;6.50;100.00;100291.38;4234355;28;20035;-78
2022/11/18 07:13:41;;;;;;;9.30;2.55;;;7.40;99.90;;;6.49;100.00;100292.34;4219117;28;20023;-77
2022/11/18 07:15:42;;;;;;;9.43;1.75;;;7.40;99.90;;;6.56;100.00;100289.03;4251631;27;20094;-78
2022/11/18 07:17:43;;;;;;;10.48;2.22;;;7.40;99.90;;;6.64;100.00;100288.31;4216569;28;20564;-79
2022/11/18 07:19:43;;;;;;;7.43;1.70;;;7.50;99.90;;;6.62;100.00;100283.22;4216856;28;20036;-77
2022/11/18 07:21:44;;;;;;;11.38;2.72;;;7.50;99.90;;;6.60;100.00;100279.88;4217635;28;20020;-78
2022/11/18 07:23:46;;;;;;;10.23;1.42;;;7.50;99.90;;;6.62;100.00;100285.00;4217624;28;20153;-77
2022/11/18 07:25:46;;;;;;;9.18;1.58;;;7.50;99.90;;;6.67;100.00;100295.88;4218842;28;20024;-77
2022/11/18 07:27:47;;;;;;;9.93;1.90;;;7.60;99.90;;;6.65;100.00;100288.19;4218757;28;20032;-77
2022/11/18 07:29:48;;;;;;;6.75;1.70;;;7.60;99.90;;;6.64;100.00;100286.50;4218843;28;20024;-77
2022/11/18 07:31:49;;;;;;;11.93;2.03;;;7.60;99.90;;;6.73;100.00;100291.84;4218668;28;20040;-77
2022/11/18 07:33:53;;;;;;;10.98;2.15;;;7.60;99.90;;;6.71;100.00;100292.00;4217088;28;20028;-77
2022/11/18 07:35:54;;;;;;;;;;;7.60;99.90;;;6.72;100.00;100303.34;4217995;28;20093;-78
2022/11/18 07:37:55;;;;;;;8.98;1.42;;;7.70;99.90;;;6.78;100.00;100306.19;4218789;28;20355;-77
2022/11/18 07:39:58;;;;;;;6.65;1.20;;;7.70;99.90;;;6.81;100.00;100302.47;4218666;28;20032;-77
2022/11/18 07:41:59;;;;;;;7.85;1.70;;;7.80;99.90;;;6.91;100.00;100316.38;4218404;28;20023;-78
2022/11/18 07:44:02;;;;;;;4.93;1.38;;;7.80;99.90;;;6.93;100.00;100317.06;4217485;28;20035;-78
2022/11/18 07:46:17;;;;;;;6.72;1.67;;;7.80;99.90;;;7.01;100.00;100320.63;4217420;28;20459;-78
2022/11/18 07:48:18;;;;;;;7.63;1.77;;;7.90;99.90;;;7.01;100.00;100314.56;4218239;28;20093;-78
2022/11/18 07:50:19;;;;;;;8.60;1.38;;;7.90;99.90;;;7.03;100.00;100323.91;4218580;28;20032;-78
2022/11/18 07:52:20;;;;;;;7.40;1.05;;;7.90;99.90;;;7.02;100.00;100324.03;4217335;28;20028;-78
2022/11/18 07:54:21;;;;;;;10.88;1.70;;;7.90;99.90;;;7.01;100.00;100320.63;4217392;28;20027;-77
2022/11/18 07:56:22;;;;;;;7.60;1.65;;;7.90;99.90;;;7.00;100.00;100323.38;4218347;28;20125;-78
2022/11/18 07:58:23;;;;;;;8.63;2.13;;;7.90;99.90;;;6.93;100.00;100317.06;4217336;28;20507;-77
2022/11/18 08:00:24;;;;;;;8.13;2.28;;;7.90;99.90;;;6.92;100.00;100326.72;4218461;28;20031;-78
2022/11/18 08:02:25;;;;;;;10.55;2.63;;;7.80;99.90;;;6.90;100.00;100327.84;4220831;28;20038;-77
2022/11/18 08:04:25;;;;;;;9.02;2.60;;;7.80;99.90;;;6.89;100.00;100340.13;4220386;28;20372;-77
2022/11/18 08:06:26;;;;;;;6.75;2.25;;;7.80;99.90;;;6.88;100.00;100335.00;4220853;28;20028;-78
2022/11/18 08:08:27;;;;;;;11.50;3.58;;;7.80;99.90;;;6.88;100.00;100343.69;4221943;28;20020;-77
2022/11/18 08:10:28;;;;;;;5.65;2.65;;;7.80;99.90;;;6.81;100.00;100332.13;4221918;28;20024;-77
2022/11/18 08:12:29;;;;;;;9.10;2.80;;;7.80;99.90;;;6.80;100.00;100330.47;4220591;28;20027;-77
2022/11/18 08:14:30;;;;;;;4.70;1.90;;;7.70;99.90;;;6.86;100.00;100324.69;4220394;28;20521;-78
2022/11/18 08:16:31;;;;;;;8.98;2.60;;;7.80;99.90;;;6.87;100.00;100326.31;4221293;28;20020;-78
2022/11/18 08:18:32;;;;;;;4.55;1.67;;;7.80;99.90;;;6.87;100.00;100323.69;4253372;27;20076;-78
2022/11/18 08:20:35;;;;;;;6.28;1.67;;;7.80;99.90;;;6.90;100.00;100327.84;4220317;28;20048;-78
2022/11/18 08:22:36;;;;;;;9.40;2.08;;;7.90;99.90;;;6.94;100.00;100332.66;4220459;28;20050;-78
2022/11/18 08:24:37;;;;;;;7.05;2.00;;;7.90;99.90;;;6.97;100.00;100328.91;4220458;28;20029;-78
2022/11/18 08:26:38;;;;;;;4.70;1.17;;;8.00;99.90;;;7.10;100.00;100342.53;4221601;28;20020;-78
2022/11/18 08:28:41;;;;;;;6.75;1.65;;;8.00;99.90;;;7.14;100.00;100341.25;4220271;28;20027;-78
2022/11/18 08:30:42;;;;;;;8.15;1.63;;;8.10;99.90;;;7.18;100.00;100342.63;4221382;28;20024;-78
2022/11/18 08:32:43;;;;;;;18.02;11.02;;;8.10;99.90;;;7.30;100.00;100338.88;4255403;27;20072;-78
2022/11/18 08:34:44;;;;;;;5.22;1.50;;;8.20;99.90;;;7.25;100.00;100333.22;4220839;28;20052;-79
2022/11/18 08:36:45;;;;;;;8.15;2.10;;;8.20;99.90;;;7.32;100.00;100334.28;4253575;27;20478;-78
2022/11/18 08:38:46;;;;;;;6.28;1.50;;;8.30;99.90;;;7.42;100.00;100344.75;4221255;28;20038;-79
2022/11/18 08:40:47;;;;;;;5.60;1.55;;;8.30;99.90;;;7.45;100.00;100344.44;4221399;28;20111;-78
2022/11/18 08:42:47;;;;;;;5.03;1.13;;;8.40;99.90;;;7.39;100.00;100335.38;4253674;27;20426;-78
2022/11/18 08:44:48;;;;;;;5.82;1.30;;;8.40;99.90;;;7.51;100.00;100347.31;4236886;28;20038;-79
2022/11/18 08:46:49;;;;;;;8.68;1.98;;;8.40;99.90;;;7.53;100.00;100353.25;4221362;28;20036;-78
2022/11/18 08:48:50;;;;;;;4.65;1.83;;;8.40;99.90;;;7.54;100.00;100344.41;4221201;28;20024;-78
2022/11/18 08:50:52;;;;;;;8.70;2.20;;;8.50;99.90;;;7.57;100.00;100349.38;4221134;28;20035;-79
2022/11/18 08:52:53;;;;;;;10.15;1.77;;;8.50;99.90;;;7.61;100.00;100350.75;4253925;27;20015;-79
2022/11/18 08:54:54;;;;;;;4.47;1.60;;;8.60;99.90;;;7.60;100.00;100349.06;4221023;28;20487;-79